createdAt,value
2023-04-18T00:03:55.012Z,8.1
2023-04-18T00:13:55.051Z,8
2023-04-18T00:23:55.373Z,7.9
2023-04-18T00:33:55.714Z,7.8
2023-04-18T00:53:57.426Z,7.6
2023-04-18T01:03:58.509Z,7.4
2023-04-18T01:13:58.872Z,7.3
2023-04-18T01:23:59.813Z,7.3
2023-04-18T01:34:00.582Z,7.3
2023-04-18T01:44:00.948Z,7.3
2023-04-18T01:44:22.835Z,7.3
2023-04-18T01:54:06.885Z,7.3
2023-04-18T02:04:07.021Z,7.1
2023-04-18T02:14:07.947Z,7
2023-04-18T02:24:08.473Z,6.8
2023-04-18T03:14:12.269Z,7
2023-04-18T04:54:17.565Z,7.6
2023-04-18T05:14:19.400Z,7.6
2023-04-18T06:04:21.805Z,7.9
2023-04-18T06:54:24.244Z,7.9
2023-04-18T07:35:56.934Z,8.1
2023-04-18T07:45:57.663Z,8
2023-04-18T07:55:58.283Z,8.2
2023-04-18T08:05:59.133Z,8.2
2023-04-18T08:36:01.384Z,8.5
2023-04-18T09:16:03.577Z,9
2023-04-18T09:36:05.195Z,9.4
2023-04-18T09:46:05.880Z,9.6
2023-04-18T09:56:06.722Z,9.6
2023-04-18T10:16:08.450Z,10
2023-04-18T10:26:08.740Z,9.8
2023-04-18T10:36:09.752Z,10.1
2023-04-18T10:46:20.414Z,10.1
2023-04-18T11:06:11.517Z,10.6
2023-04-18T11:16:12.513Z,10.8
2023-04-18T11:26:13.447Z,11.2
2023-04-18T11:36:14.048Z,11.3
2023-04-18T11:46:14.547Z,11.4
2023-04-18T12:06:15.377Z,11.4
2023-04-18T12:16:15.534Z,11.6
2023-04-18T15:06:25.012Z,14.1
2023-04-18T15:36:26.582Z,14.5
2023-04-18T15:46:27.126Z,14.2
2023-04-18T18:36:33.630Z,11.9
2023-04-18T18:46:34.202Z,11.7
2023-04-18T18:56:35.188Z,11.5
2023-04-18T19:06:35.934Z,11.4
2023-04-18T19:16:36.385Z,11.2
2023-04-18T19:26:36.612Z,11
2023-04-18T19:36:37.195Z,10.8
2023-04-18T19:46:38.135Z,10.7
2023-04-18T19:56:38.514Z,10.6
2023-04-18T20:06:39.488Z,10.6
2023-04-18T20:16:40.022Z,10.6
2023-04-18T20:26:40.829Z,10.6
2023-04-18T20:36:41.844Z,10.4
2023-04-18T20:46:42.045Z,10.3
2023-04-18T20:56:42.320Z,10.3
2023-04-18T21:06:42.659Z,10.2
2023-04-18T21:16:43.482Z,10.2
2023-04-18T21:36:44.587Z,10.2
2023-04-18T21:46:45.543Z,10.2
2023-04-18T21:56:46.538Z,10.2
2023-04-18T22:16:47.081Z,10.3
2023-04-18T22:26:47.611Z,10.3
2023-04-18T22:36:48.508Z,10.5
2023-04-18T22:46:48.542Z,10.6
2023-04-18T22:56:49.284Z,10.8
2023-04-18T23:06:50.000Z,10.9
2023-04-18T23:16:50.886Z,11
2023-04-18T23:26:51.736Z,11
2023-04-18T23:36:51.907Z,11
2023-04-18T23:46:52.980Z,11.1
